Time;durP1;ratioP1;P1;durP2;ratioP2;P2;SDS_P1;SDS_P2;PMS_P1;PMS_P2;Temp;Humidity;BMP_temperature;BMP_pressure;BME280_temperature;BME280_humidity;BME280_pressure;Samples;Min_cycle;Max_cycle;Signal;HPM_P1;HPM_P2
2022/04/30 00:00:30;;;;;;;8.40;7.70;;;;;;;7.58;100.00;97551.97;5039983;28;20227;-54
2022/04/30 00:02:59;;;;;;;9.23;8.33;;;;;;;7.58;100.00;97548.50;5020280;28;20215;-55
2022/04/30 00:05:30;;;;;;;9.20;8.40;;;;;;;7.55;100.00;97551.44;5042941;28;20284;-54
2022/04/30 00:07:58;;;;;;;8.57;7.77;;;;;;;7.53;100.00;97548.94;5041418;28;20206;-51
2022/04/30 00:10:27;;;;;;;9.00;8.30;;;;;;;7.50;100.00;97550.09;5041249;28;20242;-55
2022/04/30 00:12:55;;;;;;;9.50;8.77;;;;;;;7.51;100.00;97550.91;4992694;28;20284;-57
2022/04/30 00:15:24;;;;;;;8.70;7.90;;;;;;;7.53;100.00;97546.31;5036714;28;20277;-53
2022/04/30 00:17:53;;;;;;;8.70;7.67;;;;;;;7.53;100.00;97544.50;5029212;28;20806;-53
2022/04/30 00:20:21;;;;;;;10.43;9.17;;;;;;;7.55;100.00;97546.16;5030413;28;20338;-55
2022/04/30 00:22:51;;;;;;;8.50;7.90;;;;;;;7.64;100.00;97539.94;5040441;28;20247;-54
2022/04/30 00:25:19;;;;;;;9.87;7.53;;;;;;;7.63;100.00;97544.41;5040701;28;20727;-55
2022/04/30 00:27:47;;;;;;;8.87;8.13;;;;;;;7.60;100.00;97539.44;4999532;28;20493;-58
2022/04/30 00:30:16;;;;;;;9.10;8.33;;;;;;;7.56;100.00;97542.53;5029048;28;20314;-55
2022/04/30 00:32:44;;;;;;;9.33;8.30;;;;;;;7.55;100.00;97538.25;5030794;28;21029;-58
2022/04/30 00:35:13;;;;;;;9.03;8.33;;;;;;;7.51;100.00;97535.09;5031447;28;20215;-57
2022/04/30 00:37:41;;;;;;;9.00;8.23;;;;;;;7.48;100.00;97536.25;5033143;28;20471;-56
2022/04/30 00:40:12;;;;;;;9.00;8.20;;;;;;;7.44;100.00;97528.78;5038948;28;20219;-53
2022/04/30 00:42:40;;;;;;;9.37;8.57;;;;;;;7.40;100.00;97528.28;4999324;28;21062;-58
2022/04/30 00:45:10;;;;;;;8.73;8.03;;;;;;;7.37;100.00;97528.56;5026868;28;20490;-55
2022/04/30 00:47:38;;;;;;;9.03;8.23;;;;;;;7.38;100.00;97536.34;5036558;28;20836;-51
2022/04/30 00:50:07;;;;;;;9.37;8.47;;;;;;;7.36;100.00;97527.75;5029450;28;20230;-56
2022/04/30 00:52:36;;;;;;;9.53;8.60;;;;;;;7.32;100.00;97526.41;5034738;28;20463;-51
2022/04/30 00:55:06;;;;;;;9.90;8.47;;;;;;;7.26;100.00;97519.13;5039012;28;20408;-56
2022/04/30 00:57:36;;;;;;;9.33;8.53;;;;;;;7.26;100.00;97534.09;5034271;28;20443;-54
2022/04/30 01:00:08;;;;;;;9.70;8.90;;;;;;;7.22;100.00;97526.50;4998998;28;20362;-54
2022/04/30 01:02:36;;;;;;;8.80;8.20;;;;;;;7.19;100.00;97521.56;5024839;28;20408;-57
2022/04/30 01:05:06;;;;;;;9.57;8.87;;;;;;;7.21;100.00;97519.59;5027599;28;20650;-56
2022/04/30 01:07:36;;;;;;;9.97;9.17;;;;;;;7.21;100.00;97524.84;5036655;28;20600;-55
2022/04/30 01:10:05;;;;;;;8.47;7.87;;;;;;;7.16;100.00;97515.75;5041514;28;20318;-54
2022/04/30 01:12:35;;;;;;;10.53;8.53;;;;;;;7.19;100.00;97518.06;5039833;28;20290;-52
2022/04/30 01:15:06;;;;;;;8.37;7.57;;;;;;;7.15;100.00;97508.81;5002801;28;20532;-53
2022/04/30 01:17:35;;;;;;;9.17;8.47;;;;;;;7.04;100.00;97507.28;5029821;28;20335;-56
2022/04/30 01:20:04;;;;;;;10.27;9.23;;;;;;;6.98;100.00;97510.50;5029220;28;20317;-54
2022/04/30 01:22:36;;;;;;;13.07;9.30;;;;;;;6.91;100.00;97513.75;5036465;28;20303;-53
2022/04/30 01:25:07;;;;;;;9.03;8.33;;;;;;;6.99;100.00;97504.25;5041845;28;20295;-57
2022/04/30 01:27:36;;;;;;;8.43;7.73;;;;;;;7.00;100.00;97500.66;5040530;28;20576;-53
2022/04/30 01:30:06;;;;;;;10.10;9.30;;;;;;;7.00;100.00;97514.66;5004376;28;20227;-50
2022/04/30 01:38:10;;;;;;;8.97;8.27;;;;;;;7.01;100.00;97507.56;5022055;28;21041;-54
2022/04/30 01:40:40;;;;;;;9.30;8.53;;;;;;;7.00;100.00;97500.66;5040461;28;20569;-55
2022/04/30 01:43:08;;;;;;;9.93;9.13;;;;;;;6.95;100.00;97499.31;5046447;28;20233;-59
2022/04/30 01:45:37;;;;;;;10.43;9.60;;;;;;;6.91;100.00;97500.59;5000166;28;20306;-49
2022/04/30 01:48:06;;;;;;;10.73;9.83;;;;;;;6.88;100.00;97498.25;5027170;28;20419;-55
2022/04/30 01:50:34;;;;;;;9.50;8.70;;;;;;;6.89;100.00;97493.84;5028000;28;20223;-51
2022/04/30 01:53:03;;;;;;;10.03;9.23;;;;;;;6.88;100.00;97492.19;5041892;28;20200;-55
2022/04/30 01:55:31;;;;;;;9.70;8.70;;;;;;;6.83;100.00;97490.00;5043527;28;20667;-51
2022/04/30 01:58:00;;;;;;;9.70;8.87;;;;;;;6.79;100.00;97486.03;5042710;28;21664;-58
2022/04/30 02:00:28;;;;;;;10.77;9.77;;;;;;;6.76;100.00;97484.50;5004958;28;20310;-56
2022/04/30 02:03:00;;;;;;;11.30;10.40;;;;;;;6.71;100.00;97478.88;5029661;28;20223;-55
2022/04/30 02:05:29;;;;;;;10.67;9.77;;;;;;;6.65;100.00;97484.75;5028993;28;20451;-54
2022/04/30 02:08:00;;;;;;;10.70;9.80;;;;;;;6.59;100.00;97480.91;5047488;28;20286;-54
2022/04/30 02:10:29;;;;;;;11.03;10.03;;;;;;;6.59;100.00;97483.53;5044248;28;20500;-51
2022/04/30 02:12:57;;;;;;;10.17;9.37;;;;;;;6.61;100.00;97483.41;5044045;28;20205;-55
2022/04/30 02:15:27;;;;;;;10.20;9.20;;;;;;;6.58;100.00;97479.25;5043820;28;20203;-55
2022/04/30 02:17:57;;;;;;;10.40;9.50;;;;;;;6.54;100.00;97469.19;4991604;28;20220;-57
2022/04/30 02:20:26;;;;;;;10.60;9.67;;;;;;;6.55;100.00;97478.75;5029001;28;20271;-57
2022/04/30 02:22:56;;;;;;;10.37;9.37;;;;;;;6.55;100.00;97470.84;5040767;28;20314;-56
2022/04/30 02:25:25;;;;;;;10.03;9.23;;;;;;;6.54;100.00;97464.72;5047179;28;20234;-56
2022/04/30 02:27:55;;;;;;;9.80;9.03;;;;;;;6.49;100.00;97461.75;5045656;28;20291;-53
2022/04/30 02:30:24;;;;;;;10.73;9.57;;;;;;;6.45;100.00;97458.59;5041299;28;20317;-52
2022/04/30 02:32:55;;;;;;;9.70;8.90;;;;;;;6.47;100.00;97458.44;4998727;28;20597;-55
2022/04/30 02:35:26;;;;;;;9.10;8.30;;;;;;;6.46;100.00;97456.78;5046036;28;20210;-50
2022/04/30 02:37:58;;;;;;;10.90;10.00;;;;;;;6.42;100.00;97458.06;5023090;28;20218;-53
2022/04/30 02:40:28;;;;;;;10.30;9.37;;;;;;;6.43;100.00;97451.81;5041369;28;20261;-55
2022/04/30 02:43:01;;;;;;;10.03;9.03;;;;;;;6.39;100.00;97450.47;5043870;28;20222;-54
2022/04/30 02:45:30;;;;;;;9.90;9.10;;;;;;;6.37;100.00;97450.59;5044830;28;20204;-53
2022/04/30 02:47:59;;;;;;;10.40;9.53;;;;;;;6.38;100.00;97447.00;5002801;28;20306;-56
2022/04/30 02:50:28;;;;;;;10.53;9.47;;;;;;;6.36;100.00;97443.69;5027282;28;20293;-54
2022/04/30 02:52:56;;;;;;;10.03;9.13;;;;;;;6.32;100.00;97442.34;5030188;28;20234;-54
2022/04/30 02:55:24;;;;;;;12.07;10.87;;;;;;;6.27;100.00;97445.44;5047510;28;20694;-56
2022/04/30 03:00:41;;;;;;;10.57;9.63;;;;;;;6.24;100.00;97445.72;5048831;28;20605;-51
2022/04/30 03:03:11;;;;;;;10.13;9.27;;;;;;;6.28;100.00;97435.72;5001240;28;22181;-53
2022/04/30 03:05:40;;;;;;;10.53;9.63;;;;;;;6.22;100.00;97440.63;5032500;28;20631;-53
2022/04/30 03:08:11;;;;;;;11.67;10.77;;;;;;;6.21;100.00;97441.59;5025281;28;20507;-53
2022/04/30 03:10:39;;;;;;;11.13;10.17;;;;;;;6.25;100.00;97438.66;5042090;28;20953;-54
2022/04/30 03:13:07;;;;;;;10.03;9.17;;;;;;;6.22;100.00;97439.78;5040786;28;20376;-54
2022/04/30 03:15:36;;;;;;;10.97;10.13;;;;;;;6.18;100.00;97436.63;5047386;28;20294;-50
2022/04/30 03:23:41;;;;;;;10.97;9.87;;;;;;;6.08;100.00;97430.63;5046846;28;20309;-54
2022/04/30 03:26:11;;;;;;;10.67;9.87;;;;;;;6.09;100.00;97424.38;5025673;28;20236;-58
2022/04/30 03:28:41;;;;;;;12.03;9.87;;;;;;;6.03;100.00;97417.06;5044690;28;20272;-57
2022/04/30 03:31:11;;;;;;;11.20;10.20;;;;;;;5.99;100.00;97418.31;5044429;28;20224;-57
2022/04/30 03:33:39;;;;;;;11.50;10.40;;;;;;;6.00;100.00;97415.53;5046398;28;20295;-52
2022/04/30 03:36:12;;;;;;;11.27;10.37;;;;;;;5.88;100.00;97417.56;4989439;28;20437;-51
2022/04/30 03:38:40;;;;;;;10.77;9.90;;;;;;;5.92;100.00;97412.84;5041627;28;20207;-56
2022/04/30 03:41:08;;;;;;;10.60;9.70;;;;;;;5.85;100.00;97417.00;5019986;28;21035;-50
2022/04/30 03:43:36;;;;;;;11.03;10.03;;;;;;;5.82;100.00;97415.53;5044305;28;20219;-55
2022/04/30 03:46:05;;;;;;;11.10;10.03;;;;;;;5.76;100.00;97421.38;5036678;28;20330;-50
2022/04/30 03:48:34;;;;;;;11.17;10.10;;;;;;;5.68;100.00;97416.84;5043199;28;20675;-54
2022/04/30 03:51:02;;;;;;;11.50;10.50;;;;;;;5.64;100.00;97420.75;4997764;28;20647;-53
2022/04/30 03:53:31;;;;;;;12.50;11.40;;;;;;;5.55;100.00;97413.75;5026306;28;20339;-53
2022/04/30 03:56:00;;;;;;;11.93;10.87;;;;;;;5.53;100.00;97408.63;5024597;28;20460;-55
2022/04/30 03:58:29;;;;;;;10.40;9.57;;;;;;;5.53;100.00;97411.25;5010595;28;20314;-56
2022/04/30 04:00:57;;;;;;;9.97;9.07;;;;;;;5.56;100.00;97412.78;5046035;28;20313;-51
2022/04/30 04:03:25;;;;;;;12.37;10.07;;;;;;;5.60;100.00;97407.06;5024790;28;20330;-53
2022/04/30 04:05:53;;;;;;;11.80;10.80;;;;;;;5.52;100.00;97414.84;5001339;28;20396;-55
2022/04/30 04:08:21;;;;;;;11.53;10.53;;;;;;;5.49;100.00;97407.25;5018840;28;21407;-52
2022/04/30 04:10:51;;;;;;;11.37;10.33;;;;;;;5.56;100.00;97403.06;5006451;28;20339;-58
2022/04/30 04:19:04;;;;;;;10.83;9.83;;;;;;;5.54;100.00;97405.00;4999713;28;20218;-55
2022/04/30 04:21:32;;;;;;;11.50;10.50;;;;;;;5.67;100.00;97401.19;4959070;28;20487;-54
2022/04/30 04:26:49;;;;;;;11.77;10.70;;;;;;;5.72;100.00;97396.34;4965159;28;20546;-56
2022/04/30 04:29:17;;;;;;;11.37;10.47;;;;;;;5.71;100.00;97392.06;4977004;28;20232;-51
2022/04/30 04:31:45;;;;;;;11.03;10.13;;;;;;;5.74;100.00;97397.84;5000322;28;20291;-57
2022/04/30 04:34:13;;;;;;;10.90;9.80;;;;;;;5.75;100.00;97383.72;4963760;28;20729;-59
2022/04/30 04:36:42;;;;;;;11.15;10.07;;;;;;;5.87;100.00;97394.84;4951495;28;20455;-54
2022/04/30 04:39:11;;;;;;;10.95;9.90;;;;;;;5.90;100.00;97401.63;4992337;28;20824;-56
2022/04/30 04:41:41;;;;;;;11.30;10.23;;;;;;;5.96;100.00;97402.81;4964185;28;20367;-53
2022/04/30 04:44:11;;;;;;;9.77;8.97;;;;;;;6.04;100.00;97403.78;4981593;28;20618;-56
2022/04/30 04:46:40;;;;;;;11.13;10.13;;;;;;;6.11;100.00;97405.78;5007030;28;20239;-57
2022/04/30 04:49:09;;;;;;;9.40;8.70;;;;;;;6.20;100.00;97403.09;5040544;28;20226;-56
2022/04/30 04:51:37;;;;;;;11.20;10.20;;;;;;;6.29;100.00;97405.78;5001723;28;20327;-54
2022/04/30 04:54:06;;;;;;;9.83;9.03;;;;;;;6.40;100.00;97408.19;5043920;28;20211;-58
2022/04/30 04:56:34;;;;;;;12.02;11.13;;;;;;;6.47;100.00;97403.16;5022903;28;21190;-56
2022/04/30 04:59:02;;;;;;;10.93;9.90;;;;;;;6.65;100.00;97403.13;5045614;28;20273;-52
2022/04/30 05:01:33;;;;;;;10.20;9.30;;;;;;;6.75;100.00;97414.38;5026458;28;20203;-56
2022/04/30 05:04:02;;;;;;;11.18;10.18;;;;;;;6.85;100.00;97406.38;5045069;28;20468;-59
2022/04/30 05:06:30;;;;;;;11.87;10.87;;;;;;;6.97;100.00;97406.97;5023772;28;20203;-57
2022/04/30 05:08:58;;;;;;;11.70;10.67;;;;;;;7.10;100.00;97407.34;5029345;28;20786;-60
2022/04/30 05:11:27;;;;;;;10.67;9.77;;;;;;;7.21;100.00;97411.53;5030259;28;20690;-57
2022/04/30 05:13:55;;;;;;;10.63;9.70;;;;;;;7.32;100.00;97418.34;5026525;28;20293;-57
2022/04/30 05:16:23;;;;;;;11.30;9.97;;;;;;;7.44;100.00;97412.78;5028650;28;21097;-57
2022/04/30 05:18:53;;;;;;;9.63;8.93;;;;;;;7.58;100.00;97403.47;5041600;28;20900;-56
2022/04/30 05:21:21;;;;;;;10.43;9.63;;;;;;;7.61;100.00;97405.78;5047892;28;20290;-50
2022/04/30 05:23:49;;;;;;;10.37;8.80;;;;;;;7.81;100.00;97406.31;4996864;28;21072;-55
2022/04/30 05:26:17;;;;;;;9.57;8.67;;;;;;;7.90;100.00;97413.28;5030142;28;20762;-56
2022/04/30 05:28:46;;;;;;;9.93;8.93;;;;;;;7.98;100.00;97412.47;5012509;28;20557;-56
2022/04/30 05:31:14;;;;;;;9.57;8.63;;;;;;;7.95;100.00;97410.16;5002772;28;20473;-54
2022/04/30 05:33:42;;;;;;;9.57;8.67;;;;;;;7.99;100.00;97406.19;5046697;28;20213;-56
2022/04/30 05:36:11;;;;;;;9.60;8.83;;;;;;;8.16;100.00;97416.81;5022479;28;20299;-56
2022/04/30 05:38:39;;;;;;;10.07;9.18;;;;;;;8.20;100.00;97412.84;4983485;28;21906;-55
2022/04/30 05:41:07;;;;;;;9.80;8.83;;;;;;;8.30;100.00;97415.31;5033490;28;21182;-57
2022/04/30 05:43:36;;;;;;;8.67;8.07;;;;;;;8.33;100.00;97412.34;5016094;28;20226;-59
2022/04/30 05:46:04;;;;;;;9.97;9.13;;;;;;;8.43;100.00;97414.81;5028170;28;20884;-53
2022/04/30 05:48:32;;;;;;;9.50;8.77;;;;;;;8.36;100.00;97419.97;5033502;28;20565;-54
2022/04/30 05:51:02;;;;;;;9.00;8.30;;;;;;;8.44;100.00;97416.47;5039005;28;20310;-56
2022/04/30 05:53:32;;;;;;;9.37;8.43;;;;;;;8.71;100.00;97414.53;5007628;28;20210;-57
2022/04/30 05:56:01;;;;;;;8.80;8.13;;;;;;;8.78;100.00;97413.72;5033138;28;20211;-54
2022/04/30 05:58:29;;;;;;;10.40;9.53;;;;;;;8.85;100.00;97415.69;5018265;28;20240;-56
2022/04/30 06:00:57;;;;;;;9.63;8.83;;;;;;;8.93;100.00;97411.22;5031572;28;20226;-56
2022/04/30 06:03:25;;;;;;;9.37;8.50;;;;;;;8.79;100.00;97415.34;5008605;28;20203;-55
2022/04/30 06:05:53;;;;;;;10.27;9.37;;;;;;;8.90;100.00;97424.75;5040564;28;20900;-53
2022/04/30 06:08:22;;;;;;;9.13;8.40;;;;;;;8.94;100.00;97426.06;5030439;28;20217;-61
2022/04/30 06:10:51;;;;;;;9.53;8.73;;;;;;;9.04;100.00;97425.88;4992451;28;20227;-56
2022/04/30 06:13:19;;;;;;;12.07;9.83;;;;;;;9.22;100.00;97432.78;5035583;28;20213;-59
2022/04/30 06:15:47;;;;;;;8.60;7.90;;;;;;;9.34;100.00;97428.78;5040862;28;20282;-59
2022/04/30 06:18:16;;;;;;;8.27;7.57;;;;;;;9.62;100.00;97432.81;5033718;28;20203;-58
2022/04/30 06:20:44;;;;;;;9.55;8.65;;;;;;;9.91;100.00;97426.91;5024358;28;20450;-53
2022/04/30 06:23:15;;;;;;;8.23;7.50;;;;;;;10.18;100.00;97435.34;5027063;28;20203;-56
2022/04/30 06:25:44;;;;;;;9.90;9.00;;;;;;;10.33;100.00;97427.47;4992280;28;20242;-50
2022/04/30 06:28:13;;;;;;;7.80;7.20;;;;;;;10.42;100.00;97428.25;5036249;28;20241;-59
2022/04/30 06:30:41;;;;;;;8.90;8.00;;;;;;;10.57;100.00;97441.56;5003805;28;20252;-53
2022/04/30 06:33:09;;;;;;;8.83;7.90;;;;;;;10.56;100.00;97430.13;5026398;28;20207;-58
2022/04/30 06:35:38;;;;;;;7.83;7.27;;;;;;;10.67;100.00;97436.03;5041116;28;20199;-59
2022/04/30 06:38:07;;;;;;;8.77;8.07;;;;;;;10.92;100.00;97441.09;5045743;28;20286;-57
2022/04/30 06:40:36;;;;;;;8.60;7.90;;;;;;;11.00;100.00;97441.06;4993981;28;20232;-57
2022/04/30 06:43:04;;;;;;;9.17;8.47;;;;;;;11.24;100.00;97445.28;5042275;28;20758;-57
2022/04/30 06:45:33;;;;;;;8.23;7.63;;;;;;;11.44;100.00;97442.91;5021408;28;20218;-56
2022/04/30 06:48:01;;;;;;;8.67;7.90;;;;;;;11.56;100.00;97445.94;5036326;28;20290;-56
2022/04/30 06:50:30;;;;;;;8.07;7.40;;;;;;;11.92;100.00;97439.00;5022392;28;20338;-55
2022/04/30 06:58:40;;;;;;;8.10;7.50;;;;;;;12.76;100.00;97438.66;5035498;28;20295;-55
2022/04/30 07:01:28;;;;;;;8.20;7.50;;;;;;;12.83;100.00;97440.34;5010975;28;20594;-55
2022/04/30 07:04:01;;;;;;;7.63;7.07;;;;;;;12.87;100.00;97440.78;5040237;28;20381;-55
2022/04/30 07:06:30;;;;;;;8.50;7.70;;;;;;;12.81;95.86;97452.19;5028742;28;20210;-57
2022/04/30 07:08:58;;;;;;;7.60;7.00;;;;;;;12.71;94.51;97439.22;5040354;28;20822;-54
2022/04/30 07:11:26;;;;;;;8.17;7.50;;;;;;;12.51;97.04;97455.00;5016712;28;20238;-58
2022/04/30 07:13:55;;;;;;;7.47;6.87;;;;;;;12.61;95.84;97441.41;5024634;28;20366;-59
2022/04/30 07:16:25;;;;;;;7.50;6.90;;;;;;;12.83;93.11;97447.50;5031728;28;20234;-59
2022/04/30 07:18:53;;;;;;;8.53;7.93;;;;;;;12.58;100.00;97447.91;5039382;28;20203;-58
2022/04/30 07:21:21;;;;;;;10.00;9.15;;;;;;;12.32;100.00;97451.13;5038152;28;21867;-58
2022/04/30 07:23:49;;;;;;;9.60;8.90;;;;;;;12.34;100.00;97455.25;5040470;28;20308;-53
2022/04/30 07:26:17;;;;;;;8.27;7.63;;;;;;;12.40;100.00;97458.97;5034058;28;20234;-55
2022/04/30 07:28:46;;;;;;;8.60;8.00;;;;;;;12.47;100.00;97449.22;5008431;28;20205;-56
2022/04/30 07:31:14;;;;;;;8.10;7.50;;;;;;;12.64;100.00;97447.13;5031080;28;20870;-56
2022/04/30 07:33:44;;;;;;;7.40;6.80;;;;;;;12.91;97.28;97444.72;5030141;28;22005;-58
2022/04/30 07:36:12;;;;;;;8.47;7.77;;;;;;;12.95;98.22;97443.31;5049266;28;20195;-59
2022/04/30 07:38:40;;;;;;;7.67;6.97;;;;;;;13.32;92.72;97443.97;5043847;28;20208;-56
2022/04/30 07:41:08;;;;;;;7.93;7.13;;;;;;;13.36;90.65;97433.78;5043663;28;20238;-56
2022/04/30 07:43:36;;;;;;;7.27;6.70;;;;;;;13.35;84.12;97437.44;5001967;28;20215;-59
2022/04/30 07:46:04;;;;;;;8.13;7.40;;;;;;;13.19;88.59;97435.91;5027877;28;20225;-55
2022/04/30 07:48:38;;;;;;;8.23;7.43;;;;;;;13.38;86.94;97436.22;5022649;28;20207;-59
2022/04/30 07:51:14;;;;;;;7.60;6.80;;;;;;;13.21;85.84;97441.88;5045742;28;20824;-61
2022/04/30 07:53:42;;;;;;;7.77;7.20;;;;;;;13.16;84.42;97436.31;5046032;28;20248;-58
2022/04/30 07:56:10;;;;;;;7.03;6.53;;;;;;;13.20;84.42;97440.22;5044588;28;20188;-59
2022/04/30 07:58:39;;;;;;;9.50;8.43;;;;;;;13.43;77.42;97441.81;5006100;28;20195;-60
2022/04/30 08:01:07;;;;;;;7.90;7.20;;;;;;;13.60;75.04;97451.13;5047969;28;20225;-58
2022/04/30 08:03:36;;;;;;;7.80;7.10;;;;;;;13.80;74.57;97447.72;5012752;28;20564;-58
2022/04/30 08:06:05;;;;;;;7.90;7.17;;;;;;;14.08;86.26;97446.81;5023066;28;20545;-56
2022/04/30 08:08:35;;;;;;;8.40;7.70;;;;;;;14.03;98.57;97444.78;5026216;28;20206;-56
2022/04/30 08:11:03;;;;;;;7.80;7.20;;;;;;;13.92;91.86;97442.66;5022902;28;20975;-57
2022/04/30 08:13:31;;;;;;;9.02;8.32;;;;;;;13.62;95.65;97440.28;5029602;28;20569;-59
2022/04/30 08:15:59;;;;;;;8.10;7.47;;;;;;;13.89;82.46;97440.41;4980309;28;20212;-55
2022/04/30 08:18:27;;;;;;;7.30;6.80;;;;;;;14.08;77.83;97428.16;5026112;28;20998;-53
2022/04/30 08:20:55;;;;;;;7.90;7.30;;;;;;;14.28;73.46;97433.56;5038309;28;20216;-58
2022/04/30 08:23:24;;;;;;;7.67;7.00;;;;;;;14.51;74.41;97434.22;5020052;28;20207;-52
2022/04/30 08:25:54;;;;;;;8.57;7.83;;;;;;;14.80;67.62;97435.72;5024261;28;20234;-59
2022/04/30 08:28:22;;;;;;;7.87;7.27;;;;;;;15.05;65.14;97432.41;5030653;28;20202;-59
2022/04/30 08:30:50;;;;;;;6.60;6.00;;;;;;;15.33;63.56;97439.34;5010483;28;20227;-59
2022/04/30 08:33:18;;;;;;;7.37;6.80;;;;;;;15.23;67.07;97437.09;5013958;28;20215;-57
2022/04/30 08:35:46;;;;;;;7.30;6.60;;;;;;;15.14;66.63;97436.50;5042207;28;20290;-58
2022/04/30 08:38:14;;;;;;;7.30;6.70;;;;;;;15.38;65.21;97438.75;5022964;28;20199;-59
2022/04/30 08:40:44;;;;;;;7.87;7.13;;;;;;;15.36;59.38;97438.94;5042627;28;20227;-59
2022/04/30 08:43:14;;;;;;;6.90;6.20;;;;;;;15.59;62.14;97435.81;5040757;28;20226;-59
2022/04/30 08:45:44;;;;;;;7.13;6.47;;;;;;;15.81;60.19;97437.38;5005394;28;20246;-56
2022/04/30 08:48:13;;;;;;;6.70;6.00;;;;;;;15.94;54.84;97429.34;5027254;28;20925;-58
2022/04/30 08:50:43;;;;;;;6.77;6.17;;;;;;;15.83;52.77;97432.63;5036804;28;20321;-59
2022/04/30 08:53:12;;;;;;;6.20;5.77;;;;;;;15.72;52.81;97431.44;5040995;28;20202;-58
2022/04/30 08:55:40;;;;;;;7.03;6.43;;;;;;;15.84;52.23;97437.78;5032914;28;21736;-56
2022/04/30 08:58:08;;;;;;;6.23;5.70;;;;;;;16.13;52.40;97427.63;5039453;28;20199;-59
2022/04/30 09:00:42;;;;;;;6.50;5.90;;;;;;;16.20;48.15;97432.91;5007812;28;24881;-59
2022/04/30 09:03:13;;;;;;;6.23;5.63;;;;;;;16.41;47.67;97422.94;5031555;28;20290;-58
2022/04/30 09:05:42;;;;;;;6.37;5.87;;;;;;;16.61;46.74;97420.91;5020243;28;20229;-59
2022/04/30 09:08:10;;;;;;;6.27;5.87;;;;;;;16.64;46.89;97415.13;5039620;28;20228;-58
2022/04/30 09:10:38;;;;;;;5.90;5.50;;;;;;;16.79;49.02;97409.47;5033113;28;20228;-58
2022/04/30 09:13:08;;;;;;;6.13;5.53;;;;;;;16.96;48.33;97408.09;5039821;28;20382;-57
2022/04/30 09:15:36;;;;;;;6.50;5.90;;;;;;;17.01;49.84;97410.97;5005610;28;21498;-63
2022/04/30 09:18:08;;;;;;;6.17;5.73;;;;;;;17.06;47.87;97411.16;5033936;28;20306;-59
2022/04/30 09:20:47;;;;;;;6.53;6.00;;;;;;;16.76;48.48;97404.56;5031624;28;20895;-59
2022/04/30 09:23:24;;;;;;;5.97;5.47;;;;;;;16.95;48.08;97409.97;5032338;28;20234;-59
2022/04/30 09:25:53;;;;;;;5.67;5.27;;;;;;;16.76;47.55;97403.75;5041362;28;20238;-57
2022/04/30 09:28:26;;;;;;;5.67;5.17;;;;;;;17.01;45.54;97408.28;5029088;28;21846;-54
2022/04/30 09:31:07;;;;;;;11.20;5.70;;;;;;;17.35;46.97;97411.47;5009236;28;21212;-57
2022/04/30 09:33:37;;;;;;;6.57;5.57;;;;;;;17.50;45.96;97403.91;5030055;28;20204;-59
2022/04/30 09:38:53;;;;;;;5.80;5.33;;;;;;;17.18;45.62;97409.38;5029973;28;20217;-59
2022/04/30 09:41:24;;;;;;;5.43;5.10;;;;;;;17.25;44.97;97403.97;5043268;28;20615;-53
2022/04/30 09:44:00;;;;;;;7.87;5.57;;;;;;;17.48;44.60;97403.31;5024801;28;20242;-59
2022/04/30 09:46:29;;;;;;;6.57;5.97;;;;;;;17.76;45.76;97399.25;5012376;28;20241;-59
2022/04/30 09:54:30;;;;;;;6.67;6.17;;;;;;;18.69;41.83;97392.81;5035469;28;20302;-58
2022/04/30 09:57:00;;;;;;;6.10;5.70;;;;;;;19.15;39.92;97400.38;5040794;28;20945;-56
2022/04/30 09:59:28;;;;;;;6.17;5.30;;;;;;;19.64;38.73;97395.50;5028573;28;20223;-57
2022/04/30 10:01:56;;;;;;;7.67;5.60;;;;;;;19.31;39.03;97393.44;5002244;28;20908;-57
2022/04/30 10:04:26;;;;;;;6.00;5.40;;;;;;;18.71;39.46;97385.34;5024914;28;20760;-57
2022/04/30 10:06:54;;;;;;;5.90;5.40;;;;;;;18.97;39.16;97385.97;5031612;28;20219;-55
2022/04/30 10:09:24;;;;;;;5.83;5.33;;;;;;;18.71;40.07;97381.88;5033235;28;20244;-55
2022/04/30 10:12:00;;;;;;;5.77;5.30;;;;;;;18.80;39.93;97386.69;5038099;28;20207;-61
2022/04/30 10:14:35;;;;;;;5.73;4.57;;;;;;;19.01;39.16;97373.75;5025805;28;20207;-55
2022/04/30 10:17:18;;;;;;;5.20;4.73;;;;;;;19.46;39.97;97374.16;5003946;28;20211;-54
2022/04/30 10:19:59;;;;;;;4.93;4.63;;;;;;;19.29;37.65;97380.28;5026800;28;20231;-58
2022/04/30 10:22:28;;;;;;;5.47;4.93;;;;;;;19.59;37.53;97379.28;5040713;28;20320;-56
2022/04/30 10:24:57;;;;;;;4.97;4.57;;;;;;;19.14;37.06;97382.63;5027045;28;20303;-60
2022/04/30 10:27:26;;;;;;;5.37;4.67;;;;;;;19.08;38.54;97381.69;5043450;28;20223;-58
2022/04/30 10:29:55;;;;;;;6.63;5.17;;;;;;;18.75;38.73;97375.81;5024005;28;20816;-55
2022/04/30 10:32:28;;;;;;;5.03;4.73;;;;;;;19.08;40.21;97374.44;5041025;28;20282;-58
2022/04/30 10:34:58;;;;;;;5.60;5.20;;;;;;;19.03;39.74;97371.63;4990302;28;20211;-59
2022/04/30 10:37:30;;;;;;;5.53;4.83;;;;;;;18.78;38.83;97370.00;5049089;28;20205;-60
2022/04/30 10:39:59;;;;;;;5.40;4.83;;;;;;;19.06;38.65;97365.78;5012453;28;20246;-58
2022/04/30 10:42:31;;;;;;;4.43;4.23;;;;;;;19.22;38.30;97371.53;5042526;28;20217;-60
2022/04/30 10:44:59;;;;;;;4.80;4.50;;;;;;;19.46;38.35;97366.94;5023437;28;20191;-59
2022/04/30 10:47:28;;;;;;;4.67;4.27;;;;;;;19.79;36.76;97362.75;5040677;28;20222;-59
2022/04/30 10:49:56;;;;;;;4.63;4.33;;;;;;;19.80;36.64;97368.94;5003964;28;20223;-60
2022/04/30 10:52:25;;;;;;;3.97;3.77;;;;;;;19.74;34.86;97359.13;5027652;28;20203;-58
2022/04/30 10:54:56;;;;;;;4.50;4.10;;;;;;;19.84;34.89;97363.91;5029678;28;21055;-55
2022/04/30 10:57:24;;;;;;;4.20;4.00;;;;;;;20.24;34.52;97366.53;5045278;28;20207;-58
2022/04/30 11:00:02;;;;;;;4.37;4.07;;;;;;;20.53;33.45;97354.94;5036432;28;20322;-59
2022/04/30 11:02:31;;;;;;;4.93;4.50;;;;;;;20.44;32.57;97346.44;5028681;28;20239;-57
2022/04/30 11:05:01;;;;;;;4.73;4.33;;;;;;;19.94;32.28;97346.13;5008246;28;20268;-57
2022/04/30 11:07:31;;;;;;;4.60;4.20;;;;;;;20.18;33.99;97348.69;5025785;28;20311;-60
2022/04/30 11:09:59;;;;;;;4.70;4.30;;;;;;;20.21;32.28;97339.31;5023888;28;20230;-60
2022/04/30 11:12:30;;;;;;;5.00;4.50;;;;;;;20.32;32.83;97337.63;5042287;28;20282;-58
2022/04/30 11:14:58;;;;;;;4.97;4.67;;;;;;;20.36;31.84;97339.56;5036312;28;20779;-61
2022/04/30 11:17:27;;;;;;;5.50;4.10;;;;;;;20.21;31.76;97342.00;5022433;28;20332;-59
2022/04/30 11:19:55;;;;;;;4.47;4.10;;;;;;;20.16;32.61;97333.84;5004116;28;20942;-55
2022/04/30 11:22:24;;;;;;;3.50;3.30;;;;;;;20.18;32.18;97331.75;5027165;28;20213;-60
2022/04/30 11:24:57;;;;;;;4.53;4.13;;;;;;;19.94;32.66;97340.75;5024505;28;20211;-60
2022/04/30 11:27:25;;;;;;;5.50;5.10;;;;;;;19.61;32.64;97338.72;5049511;28;20235;-58
2022/04/30 11:29:55;;;;;;;4.30;4.00;;;;;;;19.36;32.80;97339.84;5044261;28;20223;-57
2022/04/30 11:32:26;;;;;;;4.23;3.77;;;;;;;19.66;32.21;97328.91;5036366;28;20214;-60
2022/04/30 11:34:55;;;;;;;6.83;4.50;;;;;;;19.77;32.31;97334.47;4985684;28;23256;-56
2022/04/30 11:37:24;;;;;;;5.50;4.20;;;;;;;19.88;31.63;97320.16;5028413;28;20207;-58
2022/04/30 11:39:53;;;;;;;4.20;4.00;;;;;;;19.66;31.22;97328.06;5025736;28;20264;-58
2022/04/30 11:42:25;;;;;;;3.90;3.70;;;;;;;19.63;31.28;97324.00;5034506;28;20213;-57
2022/04/30 11:44:54;;;;;;;7.03;4.60;;;;;;;19.93;32.50;97320.28;5038277;28;21686;-56
2022/04/30 11:47:22;;;;;;;4.67;4.00;;;;;;;19.72;33.51;97320.94;5040834;28;20230;-53
2022/04/30 11:49:51;;;;;;;6.10;5.20;;;;;;;19.42;34.74;97322.78;5027112;28;20235;-60
2022/04/30 11:52:19;;;;;;;4.90;4.50;;;;;;;19.69;35.28;97321.41;4989016;28;20225;-60
2022/04/30 11:54:48;;;;;;;4.50;4.20;;;;;;;20.07;33.13;97315.41;5032619;28;20222;-59
2022/04/30 11:57:17;;;;;;;17.53;6.83;;;;;;;19.74;34.17;97316.13;5027850;28;20203;-60
2022/04/30 11:59:45;;;;;;;6.20;4.57;;;;;;;20.15;33.46;97313.41;5015130;28;20219;-57
2022/04/30 12:02:16;;;;;;;5.50;5.00;;;;;;;20.30;31.95;97316.34;5038480;28;20556;-60
2022/04/30 12:04:44;;;;;;;13.50;5.30;;;;;;;20.54;32.66;97316.19;5019381;28;20230;-62
2022/04/30 12:07:13;;;;;;;5.10;4.80;;;;;;;20.87;31.61;97314.56;4991979;28;20227;-61
2022/04/30 12:09:45;;;;;;;5.10;4.60;;;;;;;21.15;31.25;97309.28;5012505;28;20313;-56
2022/04/30 12:12:20;;;;;;;6.43;4.63;;;;;;;20.88;33.36;97297.34;5013008;28;20742;-60
2022/04/30 12:14:50;;;;;;;4.73;4.33;;;;;;;20.70;33.01;97297.56;5038355;28;20337;-56